Time;durP1;ratioP1;P1;durP2;ratioP2;P2;SDS_P1;SDS_P2;PMS_P1;PMS_P2;Temp;Humidity;BMP_temperature;BMP_pressure;BME280_temperature;BME280_humidity;BME280_pressure;Samples;Min_cycle;Max_cycle;Signal;HPM_P1;HPM_P2
2023/01/09 00:00:11;;;;;;;7.35;6.30;;;6.90;99.90;;;;;;5089038;28;20473;-67
2023/01/09 00:02:39;;;;;;;7.95;5.68;;;7.00;99.90;;;;;;5087661;28;20032;-67
2023/01/09 00:05:15;;;;;;;8.75;6.43;;;7.00;99.90;;;;;;5089130;28;20433;-66
2023/01/09 00:07:41;;;;;;;7.95;6.13;;;6.90;99.90;;;;;;5087675;28;20119;-66
2023/01/09 00:10:09;;;;;;;7.40;5.70;;;6.90;99.90;;;;;;5088732;28;20114;-66
2023/01/09 00:12:35;;;;;;;6.88;5.68;;;6.90;99.90;;;;;;5089577;28;20477;-66
2023/01/09 00:15:02;;;;;;;5.93;5.15;;;6.90;99.90;;;;;;5089141;28;20051;-66
2023/01/09 00:17:28;;;;;;;6.47;4.78;;;7.00;99.90;;;;;;5089679;28;20028;-66
2023/01/09 00:19:53;;;;;;;6.68;4.78;;;7.00;99.90;;;;;;5089857;28;20377;-67
2023/01/09 00:22:19;;;;;;;6.63;5.45;;;7.00;99.90;;;;;;5091150;28;20039;-67
2023/01/09 00:24:45;;;;;;;5.45;4.65;;;6.90;99.90;;;;;;5090389;28;20056;-67
2023/01/09 00:27:13;;;;;;;6.22;4.82;;;7.00;99.90;;;;;;5090608;28;20153;-67
2023/01/09 00:29:40;;;;;;;5.63;4.50;;;6.90;99.90;;;;;;5090499;28;20035;-66
2023/01/09 00:32:08;;;;;;;5.05;4.30;;;6.90;99.90;;;;;;5090479;28;20028;-67
2023/01/09 00:34:36;;;;;;;4.03;3.60;;;7.00;99.90;;;;;;5090793;28;20024;-67
2023/01/09 00:37:02;;;;;;;3.38;3.08;;;7.00;99.90;;;;;;5090291;28;20031;-67
2023/01/09 00:39:28;;;;;;;3.25;2.88;;;7.00;99.90;;;;;;5090905;28;20465;-67
2023/01/09 00:41:55;;;;;;;4.78;2.80;;;7.00;99.90;;;;;;5090653;28;20086;-67
2023/01/09 00:44:29;;;;;;;4.38;3.05;;;7.00;99.90;;;;;;5090688;28;20096;-67
2023/01/09 00:47:00;;;;;;;3.70;2.90;;;7.00;99.90;;;;;;5090637;28;20092;-68
2023/01/09 00:49:30;;;;;;;2.60;2.40;;;7.00;99.90;;;;;;5089917;28;20016;-67
2023/01/09 00:51:55;;;;;;;3.72;2.90;;;7.00;99.90;;;;;;5090144;28;20115;-67
2023/01/09 00:54:22;;;;;;;2.63;2.25;;;7.00;99.90;;;;;;5090296;28;20448;-66
2023/01/09 00:56:48;;;;;;;2.28;2.08;;;7.00;99.90;;;;;;5090312;28;20032;-67
2023/01/09 00:59:14;;;;;;;3.10;2.20;;;7.00;99.90;;;;;;5083822;28;20020;-67
2023/01/09 01:01:40;;;;;;;1.98;1.70;;;7.00;99.90;;;;;;5090740;28;20028;-66
2023/01/09 01:09:34;;;;;;;1.30;1.20;;;7.10;99.90;;;;;;5090548;28;20081;-67
2023/01/09 01:12:00;;;;;;;2.17;1.10;;;7.10;99.90;;;;;;5090216;28;20028;-66
2023/01/09 01:14:26;;;;;;;1.70;1.10;;;7.10;99.90;;;;;;5090240;28;20024;-67
2023/01/09 01:16:52;;;;;;;1.30;1.08;;;7.10;99.90;;;;;;5090471;28;20074;-67
2023/01/09 01:19:17;;;;;;;1.00;0.98;;;7.10;99.90;;;;;;5090347;28;20024;-66
2023/01/09 01:21:43;;;;;;;0.80;0.80;;;7.10;99.90;;;;;;5090874;28;20044;-66
2023/01/09 01:24:08;;;;;;;2.38;1.05;;;7.10;99.90;;;;;;5089217;28;20055;-66
2023/01/09 01:26:34;;;;;;;1.00;0.90;;;7.30;99.90;;;;;;5090644;28;20109;-67
2023/01/09 01:29:00;;;;;;;1.92;0.60;;;7.30;99.90;;;;;;5092310;28;20031;-67
2023/01/09 01:31:25;;;;;;;0.47;0.47;;;7.30;99.90;;;;;;5094395;28;20032;-67
2023/01/09 01:33:51;;;;;;;1.00;0.63;;;7.30;99.90;;;;;;5093455;28;20024;-68
2023/01/09 01:36:16;;;;;;;1.00;0.60;;;7.20;99.90;;;;;;5093659;28;20457;-66
2023/01/09 01:38:42;;;;;;;0.50;0.50;;;7.20;99.90;;;;;;5093528;28;20031;-66
2023/01/09 01:41:09;;;;;;;1.20;0.73;;;7.40;99.90;;;;;;5093452;28;20380;-66
2023/01/09 01:43:53;;;;;;;1.48;0.47;;;7.50;99.90;;;;;;5093308;28;20439;-66
2023/01/09 01:46:18;;;;;;;0.85;0.65;;;7.40;99.90;;;;;;5094002;28;20028;-66
2023/01/09 01:48:46;;;;;;;0.30;0.30;;;7.40;99.90;;;;;;5093789;28;20020;-67
2023/01/09 01:51:15;;;;;;;0.47;0.45;;;7.40;99.90;;;;;;5093283;28;20088;-67
2023/01/09 01:53:46;;;;;;;1.20;0.40;;;7.50;99.90;;;;;;5093389;28;20494;-66
2023/01/09 01:56:29;;;;;;;0.85;0.47;;;7.40;99.90;;;;;;5075263;28;20028;-67
2023/01/09 01:58:57;;;;;;;0.45;0.45;;;7.30;99.90;;;;;;5091815;28;20027;-67
2023/01/09 02:01:24;;;;;;;0.50;0.47;;;7.30;99.90;;;;;;5093276;28;20173;-66
2023/01/09 02:03:54;;;;;;;0.50;0.38;;;7.30;99.90;;;;;;5092337;28;20052;-68
2023/01/09 02:06:19;;;;;;;0.30;0.30;;;7.30;99.90;;;;;;5093578;28;20023;-67
2023/01/09 02:08:46;;;;;;;1.40;0.50;;;7.30;99.90;;;;;;5093401;28;20028;-67
2023/01/09 02:11:13;;;;;;;0.30;0.25;;;7.40;99.90;;;;;;5092779;28;20092;-66
2023/01/09 02:13:39;;;;;;;0.52;0.32;;;7.50;99.90;;;;;;5093182;28;20036;-66
2023/01/09 02:16:10;;;;;;;0.50;0.30;;;7.40;99.90;;;;;;5092895;28;20032;-66
2023/01/09 02:18:42;;;;;;;0.20;0.20;;;7.40;99.90;;;;;;5092834;28;20440;-66
2023/01/09 02:21:45;;;;;;;0.60;0.30;;;7.40;99.90;;;;;;5092760;28;20032;-67
2023/01/09 02:24:25;;;;;;;0.38;0.30;;;7.40;99.90;;;;;;5049892;28;20233;-67
2023/01/09 02:26:51;;;;;;;0.28;0.28;;;7.30;99.90;;;;;;5093541;28;20039;-66
2023/01/09 02:29:43;;;;;;;0.30;0.30;;;7.30;99.90;;;;;;5092366;28;20032;-66
2023/01/09 02:32:09;;;;;;;0.30;0.30;;;7.30;99.90;;;;;;5092614;28;20016;-66
2023/01/09 02:34:57;;;;;;;0.60;0.47;;;7.30;99.90;;;;;;5092947;28;20043;-66
2023/01/09 02:37:42;;;;;;;0.90;0.30;;;7.20;99.90;;;;;;5072842;28;20032;-66
2023/01/09 02:40:23;;;;;;;0.25;0.25;;;7.20;99.90;;;;;;5070671;28;20500;-67
2023/01/09 02:42:50;;;;;;;0.30;0.30;;;7.20;99.90;;;;;;5072945;28;20029;-66
2023/01/09 02:45:16;;;;;;;0.30;0.20;;;7.30;99.90;;;;;;5072040;28;20081;-66
2023/01/09 02:47:46;;;;;;;0.10;0.10;;;7.40;99.90;;;;;;5072738;28;20063;-66
2023/01/09 02:50:28;;;;;;;2.08;0.32;;;7.40;99.90;;;;;;5071522;28;20260;-66
2023/01/09 02:53:36;;;;;;;0.20;0.20;;;7.50;99.90;;;;;;5072178;28;20029;-67
2023/01/09 02:56:27;;;;;;;0.43;0.20;;;7.40;99.90;;;;;;5071400;28;20426;-66
2023/01/09 02:59:08;;;;;;;0.47;0.30;;;7.40;99.90;;;;;;5088882;28;20024;-67
2023/01/09 03:01:59;;;;;;;0.65;0.30;;;7.40;99.90;;;;;;5092600;28;20506;-67
2023/01/09 03:04:46;;;;;;;0.17;0.10;;;7.40;99.90;;;;;;5092398;28;20138;-67
2023/01/09 03:07:34;;;;;;;0.30;0.20;;;7.40;99.90;;;;;;5091064;28;20197;-66
2023/01/09 03:10:48;;;;;;;0.10;0.10;;;7.30;99.90;;;;;;5089900;28;20473;-67
2023/01/09 03:13:17;;;;;;;0.70;0.20;;;7.30;99.90;;;;;;5045862;28;20388;-67
2023/01/09 03:15:45;;;;;;;2.10;0.23;;;7.30;99.90;;;;;;5092679;28;20087;-66
2023/01/09 03:18:14;;;;;;;0.40;0.13;;;7.30;99.90;;;;;;5091124;28;20457;-66
2023/01/09 03:20:41;;;;;;;0.35;0.28;;;7.30;99.90;;;;;;5092139;28;20036;-67
2023/01/09 03:23:07;;;;;;;0.20;0.20;;;7.20;99.90;;;;;;5090744;28;20097;-67
2023/01/09 03:25:33;;;;;;;0.22;0.22;;;7.20;99.90;;;;;;5092571;28;20020;-67
2023/01/09 03:28:04;;;;;;;0.68;0.32;;;7.10;99.90;;;;;;5091154;28;20346;-67
2023/01/09 03:30:32;;;;;;;0.80;0.20;;;7.00;99.90;;;;;;5091858;28;20517;-67
2023/01/09 03:32:58;;;;;;;0.20;0.20;;;6.90;99.90;;;;;;5091006;28;20035;-66
2023/01/09 03:35:24;;;;;;;0.20;0.10;;;6.90;99.90;;;;;;5092120;28;20028;-67
2023/01/09 03:37:50;;;;;;;0.55;0.20;;;6.90;99.90;;;;;;5092117;28;20028;-67
2023/01/09 03:40:20;;;;;;;0.30;0.25;;;6.80;99.90;;;;;;5091074;28;20039;-67
2023/01/09 03:42:46;;;;;;;0.68;0.10;;;6.80;99.90;;;;;;5091885;28;20046;-67
2023/01/09 03:45:12;;;;;;;0.55;0.00;;;6.70;99.90;;;;;;5090848;28;20035;-67
2023/01/09 03:47:38;;;;;;;0.57;0.20;;;6.70;99.90;;;;;;5091991;28;20483;-67
2023/01/09 03:50:04;;;;;;;0.32;0.10;;;6.70;99.90;;;;;;5090434;28;20035;-67
2023/01/09 03:52:29;;;;;;;1.05;0.10;;;6.70;99.90;;;;;;5091424;28;20028;-67
2023/01/09 03:54:55;;;;;;;0.35;0.10;;;6.70;99.90;;;;;;5089985;28;20069;-68
2023/01/09 03:57:22;;;;;;;0.70;0.10;;;6.70;99.90;;;;;;5091002;28;20040;-67
2023/01/09 03:59:48;;;;;;;0.03;0.03;;;6.60;99.90;;;;;;5090645;28;20035;-67
2023/01/09 04:02:14;;;;;;;0.08;0.08;;;6.60;99.90;;;;;;5090463;28;20054;-65
2023/01/09 04:04:39;;;;;;;0.10;0.10;;;6.60;99.90;;;;;;5090961;28;20024;-66
2023/01/09 04:07:05;;;;;;;0.05;0.05;;;6.60;99.90;;;;;;5090018;28;20032;-66
2023/01/09 04:09:31;;;;;;;0.22;0.10;;;6.50;99.90;;;;;;5090962;28;20028;-68
2023/01/09 04:11:56;;;;;;;1.35;0.25;;;6.50;99.90;;;;;;5090601;28;20035;-67
2023/01/09 04:14:22;;;;;;;0.70;0.10;;;6.40;99.90;;;;;;5090727;28;20031;-67
2023/01/09 04:16:47;;;;;;;0.38;0.20;;;6.40;99.90;;;;;;5091291;28;20024;-67
2023/01/09 04:19:13;;;;;;;0.60;0.30;;;6.40;99.90;;;;;;5089198;28;20866;-67
2023/01/09 04:21:38;;;;;;;1.33;0.57;;;6.40;99.90;;;;;;5091434;28;20152;-66
2023/01/09 04:24:04;;;;;;;1.23;0.30;;;6.40;99.90;;;;;;5089149;28;20064;-67
2023/01/09 04:26:30;;;;;;;0.22;0.17;;;6.40;99.90;;;;;;5090887;28;20035;-67
2023/01/09 04:28:56;;;;;;;0.10;0.10;;;6.50;99.90;;;;;;5088678;28;20024;-68
2023/01/09 04:31:21;;;;;;;0.05;0.05;;;6.30;99.90;;;;;;5091154;28;20081;-67
2023/01/09 04:33:47;;;;;;;0.00;0.00;;;6.30;99.90;;;;;;5090993;28;20020;-67
2023/01/09 04:36:12;;;;;;;0.30;0.17;;;6.40;99.90;;;;;;5089771;28;20031;-67
2023/01/09 04:38:38;;;;;;;0.00;0.00;;;6.30;99.90;;;;;;5090423;28;20020;-67
2023/01/09 04:41:04;;;;;;;0.00;0.00;;;6.10;99.90;;;;;;5089879;28;20112;-66
2023/01/09 04:43:29;;;;;;;0.80;0.22;;;6.10;99.90;;;;;;5089677;28;20036;-67
2023/01/09 04:45:55;;;;;;;0.08;0.00;;;6.00;99.90;;;;;;5090129;28;20028;-66
2023/01/09 04:48:20;;;;;;;2.08;0.13;;;6.10;99.90;;;;;;5090264;28;20024;-66
2023/01/09 04:50:46;;;;;;;0.20;0.10;;;6.20;99.90;;;;;;5091003;28;20440;-66
2023/01/09 04:53:12;;;;;;;0.00;0.00;;;6.10;99.90;;;;;;5089125;28;20020;-67
2023/01/09 04:55:40;;;;;;;0.22;0.10;;;;;;;;;;5090657;28;20372;-66
2023/01/09 04:58:06;;;;;;;0.57;0.05;;;;;;;;;;5089392;28;20437;-66
2023/01/09 05:00:31;;;;;;;0.52;0.00;;;5.80;99.90;;;;;;5090311;28;20046;-66
2023/01/09 05:02:57;;;;;;;0.00;0.00;;;5.80;99.90;;;;;;5090284;28;20381;-67
2023/01/09 05:05:23;;;;;;;0.00;0.00;;;5.80;99.90;;;;;;5094300;28;20024;-66
2023/01/09 05:07:48;;;;;;;0.32;0.10;;;5.70;99.90;;;;;;5094625;28;20024;-67
2023/01/09 05:10:14;;;;;;;0.20;0.10;;;5.60;99.90;;;;;;5093128;28;20059;-67
2023/01/09 05:12:39;;;;;;;1.63;0.20;;;5.60;99.90;;;;;;5093750;28;20043;-67
2023/01/09 05:15:06;;;;;;;0.52;0.10;;;5.60;99.90;;;;;;5092414;28;20031;-66
2023/01/09 05:17:32;;;;;;;3.33;0.10;;;5.50;99.90;;;;;;5094653;28;20033;-66
2023/01/09 05:19:59;;;;;;;1.05;0.20;;;5.50;99.90;;;;;;5092949;28;20028;-67
2023/01/09 05:22:25;;;;;;;1.05;0.17;;;5.60;99.90;;;;;;5094446;28;20046;-67
2023/01/09 05:24:51;;;;;;;0.52;0.20;;;5.60;99.90;;;;;;5093557;28;20489;-67
2023/01/09 05:27:17;;;;;;;0.47;0.22;;;5.50;99.90;;;;;;5093947;28;20074;-68
2023/01/09 05:29:43;;;;;;;1.25;0.30;;;5.40;99.90;;;;;;5094198;28;20043;-66
2023/01/09 05:32:09;;;;;;;0.30;0.20;;;5.40;99.90;;;;;;5093282;28;20032;-67
2023/01/09 05:34:34;;;;;;;2.35;0.47;;;5.40;99.90;;;;;;5094210;28;20032;-66
2023/01/09 05:37:00;;;;;;;1.55;0.30;;;5.30;99.90;;;;;;5093731;28;20024;-66
2023/01/09 05:39:25;;;;;;;1.58;0.30;;;5.30;99.90;;;;;;5094153;28;20160;-66
2023/01/09 05:41:51;;;;;;;1.48;0.52;;;5.20;99.90;;;;;;5094069;28;20028;-68
2023/01/09 05:44:19;;;;;;;1.58;0.45;;;;;;;;;;5093233;28;20039;-66
2023/01/09 05:46:44;;;;;;;1.70;0.60;;;5.20;99.90;;;;;;5094234;28;20027;-67
2023/01/09 05:49:10;;;;;;;2.45;0.70;;;5.30;99.90;;;;;;5093106;28;20876;-66
2023/01/09 05:51:35;;;;;;;1.92;0.25;;;5.20;99.90;;;;;;5093869;28;20063;-66
2023/01/09 05:54:02;;;;;;;2.45;0.50;;;5.30;99.90;;;;;;5092374;28;20035;-66
2023/01/09 05:56:28;;;;;;;1.38;0.60;;;5.20;99.90;;;;;;5093394;28;20094;-68
2023/01/09 05:58:54;;;;;;;3.33;0.50;;;5.10;99.90;;;;;;5092018;28;20026;-67
2023/01/09 06:01:20;;;;;;;1.38;0.40;;;5.10;99.90;;;;;;5093046;28;20040;-66
2023/01/09 06:03:48;;;;;;;3.83;0.55;;;;;;;;;;5092960;28;20041;-67
2023/01/09 06:06:14;;;;;;;1.23;0.30;;;4.80;99.90;;;;;;5092488;28;20156;-67
2023/01/09 06:08:39;;;;;;;1.83;0.35;;;4.80;99.90;;;;;;5090729;28;20071;-67
2023/01/09 06:11:05;;;;;;;0.65;0.30;;;4.70;99.90;;;;;;5092179;28;20107;-66
2023/01/09 06:13:30;;;;;;;1.38;0.30;;;4.60;99.90;;;;;;5092115;28;20085;-66
2023/01/09 06:15:56;;;;;;;1.58;0.40;;;4.60;99.90;;;;;;5092041;28;20116;-66
2023/01/09 06:18:22;;;;;;;3.17;0.20;;;4.60;99.90;;;;;;5083756;28;20020;-67
2023/01/09 06:20:47;;;;;;;1.13;0.20;;;4.60;99.90;;;;;;5091866;28;20090;-66
2023/01/09 06:23:13;;;;;;;1.38;0.20;;;4.60;99.90;;;;;;5091217;28;20622;-68
2023/01/09 06:25:38;;;;;;;1.42;0.28;;;4.60;99.90;;;;;;5092949;28;20028;-66
2023/01/09 06:28:04;;;;;;;0.68;0.30;;;4.70;99.90;;;;;;5091223;28;20035;-67
2023/01/09 06:30:29;;;;;;;4.28;0.38;;;4.80;99.90;;;;;;5092481;28;20044;-67
2023/01/09 06:32:55;;;;;;;2.25;0.30;;;4.80;99.90;;;;;;5091519;28;20481;-67
2023/01/09 06:35:21;;;;;;;0.47;0.20;;;4.80;99.90;;;;;;5082408;28;20031;-67
2023/01/09 06:37:49;;;;;;;2.05;0.40;;;4.80;99.90;;;;;;5092587;28;20043;-74
2023/01/09 06:40:16;;;;;;;1.15;0.17;;;4.80;99.90;;;;;;5091860;28;20043;-73
2023/01/09 06:42:45;;;;;;;0.95;0.40;;;4.70;99.90;;;;;;5092718;28;20028;-68
2023/01/09 06:45:12;;;;;;;1.30;0.25;;;4.60;99.90;;;;;;5091670;28;20028;-67
2023/01/09 06:47:38;;;;;;;7.15;1.02;;;4.60;99.90;;;;;;5092298;28;20485;-68
2023/01/09 06:50:05;;;;;;;2.90;0.63;;;4.50;99.90;;;;;;5090845;28;20031;-67
2023/01/09 06:52:30;;;;;;;0.25;0.20;;;4.50;99.90;;;;;;5092313;28;20424;-67
2023/01/09 06:54:56;;;;;;;1.27;0.30;;;4.40;99.90;;;;;;5090814;28;20028;-67
2023/01/09 06:57:21;;;;;;;1.23;0.32;;;4.40;99.90;;;;;;5092654;28;20376;-67
2023/01/09 06:59:47;;;;;;;3.80;0.40;;;4.40;99.90;;;;;;5091725;28;20104;-66
2023/01/09 07:02:18;;;;;;;1.23;0.30;;;4.40;99.90;;;;;;5091385;28;20032;-67
2023/01/09 07:05:06;;;;;;;1.95;0.52;;;4.50;99.90;;;;;;5091283;28;20047;-67
2023/01/09 07:07:31;;;;;;;2.25;0.57;;;4.60;99.90;;;;;;5091461;28;20480;-68
2023/01/09 07:09:57;;;;;;;2.38;0.30;;;4.60;99.90;;;;;;5082955;28;20024;-70
2023/01/09 07:12:23;;;;;;;5.75;1.17;;;4.60;99.90;;;;;;5091425;28;20028;-70
2023/01/09 07:14:49;;;;;;;2.80;0.50;;;4.60;99.90;;;;;;5091246;28;20036;-76
2023/01/09 07:17:14;;;;;;;4.28;0.90;;;4.60;99.90;;;;;;5092254;28;20365;-74
2023/01/09 07:19:40;;;;;;;4.00;0.93;;;4.60;99.90;;;;;;5091478;28;20457;-73
2023/01/09 07:22:06;;;;;;;2.80;0.35;;;4.60;99.90;;;;;;5093282;28;20032;-74
2023/01/09 07:24:32;;;;;;;3.38;0.65;;;4.60;99.90;;;;;;5074594;28;20051;-71
2023/01/09 07:26:57;;;;;;;5.65;0.60;;;4.50;99.90;;;;;;5080704;28;20108;-68
2023/01/09 07:29:23;;;;;;;6.63;1.05;;;4.60;99.90;;;;;;5088505;28;20020;-68
2023/01/09 07:31:48;;;;;;;4.13;0.70;;;4.50;99.90;;;;;;5092529;28;20040;-68
2023/01/09 07:34:14;;;;;;;1.88;0.45;;;4.80;99.90;;;;;;5088284;28;20442;-68
2023/01/09 07:36:40;;;;;;;2.72;0.60;;;4.90;99.90;;;;;;5086971;28;20488;-68
2023/01/09 07:39:05;;;;;;;6.63;0.50;;;4.90;99.90;;;;;;5091233;28;20030;-68
2023/01/09 07:41:31;;;;;;;3.15;0.43;;;4.90;99.90;;;;;;5089440;28;21300;-68
2023/01/09 07:43:57;;;;;;;3.90;0.65;;;4.90;99.90;;;;;;5084690;28;20020;-67
2023/01/09 07:46:22;;;;;;;2.80;0.70;;;4.90;99.90;;;;;;5090354;28;20035;-67
2023/01/09 07:48:48;;;;;;;3.17;0.70;;;5.00;99.90;;;;;;5082719;28;20036;-68
2023/01/09 07:51:13;;;;;;;5.13;1.08;;;4.90;99.90;;;;;;5088733;28;20080;-68
2023/01/09 07:53:39;;;;;;;1.17;0.60;;;4.90;99.90;;;;;;5081626;28;20115;-68
2023/01/09 07:56:05;;;;;;;6.18;1.15;;;4.90;99.90;;;;;;5081646;28;20024;-67
2023/01/09 07:58:31;;;;;;;2.42;0.50;;;4.80;99.90;;;;;;5080019;28;20705;-67
2023/01/09 08:00:57;;;;;;;1.30;0.50;;;4.80;99.90;;;;;;5075753;28;20029;-67
2023/01/09 08:03:22;;;;;;;2.70;0.80;;;4.80;99.90;;;;;;5080488;28;20109;-68
2023/01/09 08:05:48;;;;;;;2.95;0.70;;;4.80;99.90;;;;;;5078171;28;20100;-67
2023/01/09 08:08:13;;;;;;;5.50;0.75;;;4.80;99.90;;;;;;5072499;28;20110;-67
2023/01/09 08:10:40;;;;;;;4.43;0.63;;;4.80;99.90;;;;;;5080415;28;20027;-67
2023/01/09 08:13:05;;;;;;;5.28;0.68;;;4.80;99.90;;;;;;5081177;28;20146;-67
2023/01/09 08:15:32;;;;;;;4.30;0.82;;;4.80;99.90;;;;;;5089201;28;20036;-67
2023/01/09 08:17:58;;;;;;;3.75;0.60;;;4.80;99.90;;;;;;5080568;28;20036;-67
2023/01/09 08:20:23;;;;;;;2.10;0.50;;;4.90;99.90;;;;;;5086154;28;20036;-67
2023/01/09 08:22:49;;;;;;;5.05;0.70;;;5.00;99.90;;;;;;5077923;28;20492;-67
2023/01/09 08:25:16;;;;;;;3.55;0.80;;;5.20;99.90;;;;;;5080046;28;20440;-66
2023/01/09 08:27:42;;;;;;;6.38;0.80;;;5.20;99.90;;;;;;5077572;28;20028;-67
2023/01/09 08:30:08;;;;;;;5.20;0.80;;;5.30;99.90;;;;;;5076922;28;20196;-67
2023/01/09 08:32:34;;;;;;;3.50;0.93;;;5.40;99.90;;;;;;5092740;28;20035;-67
2023/01/09 08:35:00;;;;;;;2.72;0.88;;;5.50;99.90;;;;;;5078320;28;20055;-67
2023/01/09 08:37:26;;;;;;;5.05;0.80;;;5.50;99.90;;;;;;5091755;28;20107;-67
2023/01/09 08:39:52;;;;;;;8.85;0.80;;;5.50;99.90;;;;;;5093495;28;20027;-68
2023/01/09 08:47:47;;;;;;;3.92;0.65;;;5.60;99.90;;;;;;5094467;28;20031;-67
2023/01/09 08:50:13;;;;;;;5.78;1.20;;;5.60;99.90;;;;;;5081676;28;20020;-68
2023/01/09 08:52:38;;;;;;;6.85;0.73;;;5.60;99.90;;;;;;5092949;28;20024;-67
2023/01/09 08:55:04;;;;;;;8.50;0.82;;;5.70;99.90;;;;;;5089719;28;20024;-68
2023/01/09 08:57:30;;;;;;;1.73;0.50;;;5.70;99.90;;;;;;5094699;28;20434;-69
2023/01/09 08:59:55;;;;;;;5.40;0.80;;;5.80;99.90;;;;;;5093717;28;20122;-67
2023/01/09 09:02:21;;;;;;;1.38;0.52;;;5.80;99.90;;;;;;5102820;28;20042;-67
2023/01/09 09:04:50;;;;;;;3.55;0.50;;;5.90;99.90;;;;;;5108722;28;20024;-67
2023/01/09 09:07:16;;;;;;;6.80;0.77;;;5.90;99.90;;;;;;5103997;28;20024;-67
2023/01/09 09:09:41;;;;;;;6.47;0.90;;;6.10;99.90;;;;;;5108036;28;20050;-68
2023/01/09 09:12:07;;;;;;;4.00;0.73;;;6.20;99.90;;;;;;5111860;28;20031;-67
2023/01/09 09:17:16;;;;;;;3.20;0.50;;;6.30;99.90;;;;;;5104209;28;20030;-68
2023/01/09 09:19:42;;;;;;;1.27;0.40;;;6.30;99.90;;;;;;5084243;28;20028;-68
2023/01/09 09:22:08;;;;;;;4.18;0.50;;;6.40;99.90;;;;;;5092408;28;20035;-68
2023/01/09 09:24:33;;;;;;;6.10;0.73;;;6.50;99.90;;;;;;5091673;28;20053;-68
2023/01/09 09:26:59;;;;;;;2.92;0.50;;;6.50;99.90;;;;;;5092578;28;20026;-67
2023/01/09 09:29:24;;;;;;;3.53;0.63;;;6.50;99.90;;;;;;5093279;28;20032;-67
2023/01/09 09:31:50;;;;;;;6.32;1.70;;;6.60;99.90;;;;;;5092965;28;20066;-68
2023/01/09 09:34:16;;;;;;;6.63;1.38;;;6.60;99.90;;;;;;5092122;28;20421;-68
2023/01/09 09:36:41;;;;;;;4.15;0.80;;;6.60;99.90;;;;;;5092997;28;20028;-68
2023/01/09 09:39:08;;;;;;;4.20;0.60;;;6.70;99.90;;;;;;5091742;28;20035;-68
2023/01/09 09:45:04;;;;;;;3.35;0.77;;;6.70;99.90;;;;;;5092319;28;20036;-67
2023/01/09 09:47:39;;;;;;;6.88;1.05;;;6.80;99.90;;;;;;5093348;28;20028;-66
2023/01/09 09:50:34;;;;;;;2.85;0.65;;;6.90;99.90;;;;;;5091545;28;20028;-67
2023/01/09 09:53:11;;;;;;;3.50;0.77;;;6.90;99.90;;;;;;5096260;28;20020;-67
2023/01/09 09:55:39;;;;;;;5.70;0.60;;;7.00;99.90;;;;;;5094134;28;20066;-67
2023/01/09 09:58:21;;;;;;;4.80;0.80;;;7.10;99.90;;;;;;5092013;28;20028;-68
2023/01/09 10:00:49;;;;;;;4.47;0.98;;;7.20;99.90;;;;;;5099740;28;20036;-68
2023/01/09 10:03:53;;;;;;;1.83;0.45;;;7.40;99.90;;;;;;5082446;28;20093;-67
2023/01/09 10:06:24;;;;;;;3.88;0.85;;;7.40;99.90;;;;;;5072422;28;20044;-66
2023/01/09 10:09:31;;;;;;;2.80;0.88;;;7.50;99.90;;;;;;5086129;28;20040;-67
2023/01/09 10:12:26;;;;;;;2.13;0.60;;;7.60;99.90;;;;;;5079799;28;20036;-68
2023/01/09 10:15:01;;;;;;;5.05;1.20;;;7.70;99.90;;;;;;5084563;28;20033;-68
2023/01/09 10:17:32;;;;;;;1.90;0.40;;;7.80;99.90;;;;;;5081820;28;20051;-67
2023/01/09 10:20:00;;;;;;;4.28;0.88;;;8.10;99.90;;;;;;5080162;28;20059;-67
2023/01/09 10:22:44;;;;;;;3.33;1.00;;;8.10;99.90;;;;;;5081887;28;20098;-67
2023/01/09 10:25:21;;;;;;;9.30;1.05;;;8.20;99.90;;;;;;5078872;28;20137;-67
2023/01/09 10:27:58;;;;;;;3.75;0.95;;;8.30;99.90;;;;;;5082135;28;20027;-68
2023/01/09 10:30:32;;;;;;;6.32;1.00;;;8.30;99.90;;;;;;5075499;28;20037;-67
2023/01/09 10:33:18;;;;;;;5.63;0.82;;;8.40;99.90;;;;;;5078101;28;20447;-67
2023/01/09 10:35:58;;;;;;;5.30;0.93;;;8.40;99.90;;;;;;5081187;28;20062;-67
2023/01/09 10:38:27;;;;;;;;;;;8.50;99.90;;;;;;5072964;28;20020;-66
2023/01/09 10:41:03;;;;;;;1.70;0.70;;;8.50;99.90;;;;;;5085296;28;20385;-68
2023/01/09 10:43:33;;;;;;;4.40;0.95;;;8.50;99.90;;;;;;5081664;28;20028;-68
2023/01/09 10:46:04;;;;;;;5.72;1.08;;;8.50;99.90;;;;;;5083711;28;20469;-68
2023/01/09 10:48:36;;;;;;;8.43;1.40;;;8.50;99.90;;;;;;5073228;28;20033;-68
2023/01/09 10:51:19;;;;;;;6.38;1.20;;;8.50;99.90;;;;;;5075711;28;20174;-67
2023/01/09 10:53:51;;;;;;;8.05;0.98;;;8.50;99.90;;;;;;5081406;28;20046;-67
2023/01/09 10:56:35;;;;;;;5.88;1.15;;;8.50;99.90;;;;;;5083250;28;20028;-70
2023/01/09 10:59:01;;;;;;;4.13;0.68;;;8.40;99.90;;;;;;5086743;28;20020;-67
2023/01/09 11:01:32;;;;;;;5.43;0.95;;;8.30;99.90;;;;;;5085388;28;20036;-68
2023/01/09 11:04:00;;;;;;;5.40;0.90;;;8.20;99.90;;;;;;5078924;28;20039;-67
2023/01/09 11:06:35;;;;;;;4.05;0.90;;;8.20;99.90;;;;;;5084080;28;20020;-67
2023/01/09 11:09:01;;;;;;;6.20;0.77;;;8.30;99.90;;;;;;5087659;28;20031;-66
2023/01/09 11:11:43;;;;;;;5.22;0.85;;;8.20;99.90;;;;;;5083652;28;20063;-71
2023/01/09 11:14:17;;;;;;;4.93;0.80;;;8.20;99.90;;;;;;5080883;28;20473;-66
2023/01/09 11:17:03;;;;;;;4.60;0.85;;;8.30;99.90;;;;;;5083438;28;20415;-67
2023/01/09 11:19:32;;;;;;;6.15;0.70;;;8.30;99.90;;;;;;5086732;28;20470;-65
2023/01/09 11:22:17;;;;;;;4.90;1.02;;;8.30;99.90;;;;;;5080734;28;20469;-68
2023/01/09 11:24:43;;;;;;;4.97;0.98;;;8.40;99.90;;;;;;5088902;28;20044;-68
2023/01/09 11:27:22;;;;;;;4.15;0.95;;;8.30;99.90;;;;;;5090046;28;20024;-68
2023/01/09 11:30:08;;;;;;;7.65;1.13;;;8.40;99.90;;;;;;5090863;28;20020;-67
2023/01/09 11:32:34;;;;;;;6.43;1.23;;;8.50;99.90;;;;;;5090210;28;20115;-67
2023/01/09 11:35:00;;;;;;;4.38;0.95;;;8.60;99.90;;;;;;5089370;28;20035;-68
2023/01/09 11:37:30;;;;;;;5.70;1.33;;;8.80;99.90;;;;;;5088051;28;20073;-67
2023/01/09 11:39:58;;;;;;;3.28;0.90;;;9.00;99.90;;;;;;5089997;28;20020;-67
2023/01/09 11:45:20;;;;;;;6.82;1.10;;;9.10;99.90;;;;;;5087118;28;20168;-67
2023/01/09 11:47:46;;;;;;;3.67;0.90;;;9.10;99.90;;;;;;5088998;28;20027;-67
2023/01/09 11:50:19;;;;;;;7.88;0.85;;;9.10;99.90;;;;;;5091506;28;20571;-67
2023/01/09 11:52:45;;;;;;;4.13;1.00;;;9.10;99.90;;;;;;5085180;28;20024;-67
2023/01/09 11:55:16;;;;;;;6.38;1.10;;;9.00;99.90;;;;;;5081212;28;20032;-67
2023/01/09 11:57:42;;;;;;;3.35;0.90;;;9.00;99.90;;;;;;5081136;28;20409;-67
2023/01/09 12:00:27;;;;;;;2.45;0.65;;;9.00;99.90;;;;;;5076834;28;20062;-67
2023/01/09 12:03:27;;;;;;;5.47;1.10;;;8.90;99.90;;;;;;5083191;28;20024;-67
2023/01/09 12:06:02;;;;;;;3.72;0.70;;;8.80;99.90;;;;;;5074273;28;20103;-67
2023/01/09 12:08:55;;;;;;;6.82;0.90;;;8.90;99.90;;;;;;5083153;28;20032;-67
2023/01/09 12:11:43;;;;;;;4.05;0.80;;;9.00;99.90;;;;;;5078311;28;20064;-67
2023/01/09 12:14:42;;;;;;;3.33;0.80;;;9.00;99.90;;;;;;5091386;28;20022;-67
2023/01/09 12:17:39;;;;;;;6.83;1.10;;;8.90;99.90;;;;;;5092331;28;20031;-68
2023/01/09 12:20:07;;;;;;;6.05;0.90;;;8.80;99.90;;;;;;5096228;28;20022;-68
2023/01/09 12:22:58;;;;;;;5.40;1.30;;;9.00;99.90;;;;;;5094157;28;20038;-67
2023/01/09 12:25:58;;;;;;;5.40;1.02;;;9.10;99.90;;;;;;5040191;28;20037;-68
2023/01/09 12:28:37;;;;;;;5.40;0.85;;;9.30;99.90;;;;;;5056170;28;20040;-67
2023/01/09 12:31:23;;;;;;;7.82;1.13;;;9.40;99.90;;;;;;5042485;28;20116;-67
2023/01/09 12:33:55;;;;;;;3.90;0.85;;;9.50;99.90;;;;;;5054179;28;20028;-67
2023/01/09 12:36:51;;;;;;;9.73;1.15;;;9.60;99.90;;;;;;5065287;28;20029;-66
2023/01/09 12:39:28;;;;;;;5.60;1.23;;;9.60;99.90;;;;;;5048866;28;20075;-67
2023/01/09 12:42:04;;;;;;;5.80;0.90;;;9.60;99.90;;;;;;5059133;28;20481;-68
2023/01/09 12:44:36;;;;;;;5.05;0.88;;;9.40;99.90;;;;;;5057334;28;20696;-67
2023/01/09 12:47:17;;;;;;;5.15;1.48;;;9.20;99.90;;;;;;5055363;28;20032;-67
2023/01/09 12:50:11;;;;;;;4.13;0.80;;;9.10;99.90;;;;;;5058790;28;20127;-67
2023/01/09 12:52:48;;;;;;;5.72;1.15;;;9.00;99.90;;;;;;5059134;28;20083;-67
2023/01/09 12:55:19;;;;;;;5.82;0.95;;;9.00;99.90;;;;;;5060519;28;20504;-67
2023/01/09 12:57:49;;;;;;;5.38;0.90;;;9.00;99.90;;;;;;5054190;28;20035;-68
2023/01/09 13:00:26;;;;;;;6.78;0.95;;;9.00;99.90;;;;;;5057786;28;20025;-67
2023/01/09 13:03:17;;;;;;;4.10;1.05;;;8.90;99.90;;;;;;5060992;28;20032;-67
2023/01/09 13:05:46;;;;;;;2.58;0.80;;;8.80;99.90;;;;;;5061810;28;20061;-68
2023/01/09 13:08:35;;;;;;;2.97;0.73;;;8.60;99.90;;;;;;5044119;28;20040;-67
2023/01/09 13:11:25;;;;;;;4.53;0.95;;;8.50;99.90;;;;;;5058252;28;20552;-67
2023/01/09 13:14:00;;;;;;;4.50;0.80;;;8.40;99.90;;;;;;5058624;28;20032;-68
2023/01/09 13:16:40;;;;;;;3.63;0.82;;;8.40;99.90;;;;;;5060450;28;20478;-67
2023/01/09 13:19:12;;;;;;;6.03;0.80;;;8.50;99.90;;;;;;5055657;28;20024;-68
2023/01/09 13:21:38;;;;;;;4.90;0.60;;;8.60;99.90;;;;;;5065502;28;20163;-67
2023/01/09 13:24:19;;;;;;;3.15;0.55;;;8.70;99.90;;;;;;5059646;28;20139;-67
2023/01/09 13:26:59;;;;;;;6.28;0.90;;;8.80;99.90;;;;;;5077187;28;20481;-68
2023/01/09 13:29:36;;;;;;;;;;;8.80;99.90;;;;;;5072853;28;20064;-68
2023/01/09 13:32:29;;;;;;;2.15;0.68;;;8.70;99.90;;;;;;5071932;28;19913;-68
2023/01/09 13:34:56;;;;;;;4.43;0.88;;;8.50;99.90;;;;;;5070957;28;20052;-68